Tiempo atmosférico en la estación meteorológica de Tarragona, Tarragona (60 m.)



Fecha
DESCASC
Temp. máxima en grados centígrados (hora)
DESCASC
Temp. mínima en grados centígrados (hora)
DESCASC
Temp. media en grados centígrados
DESCASC
Racha de viento máxima en m/sg (hora)
DESCASC
Velocidad máxima media en intervalos de 10 minutos(hora)
DESCASC
Precipitaciones diarias en mm
DESCASC
Precipitaciones de 00:00 a 06:00 en mm
DESCASC
Precipitaciones de 06:00 a 12:00 en mm
DESCASC
Precipitaciones de 12:00 a 18:00 en mm
DESCASC
Precipitaciones de 18:00 a 24:00 en mm
DESCASC
15-11-2018 20.8 (13:40) 15 (22:10) 17.9 -- (--) -- (--) 2 0.2 1.8 0 0
14-11-2018 21.1 (11:40) 15.4 (05:40) 18.3 -- (--) -- (--) 0 0 0 0 0
13-11-2018 22.7 (12:20) 13.7 (06:30) 18.2 -- (--) -- (--) 0 0 0 0 0
12-11-2018 21.1 (12:30) 14 (08:00) 17.6 -- (--) -- (--) 0 0 0 0 0
11-11-2018 23 (12:20) 11.9 (00:00) 17.4 -- (--) -- (--) 0 0 0 0 0
10-11-2018 19.7 (14:50) 9.4 (00:00) 14.6 -- (--) -- (--) 0 0 0 0 0
09-11-2018 18.8 (15:20) 10.1 (00:00) 14.4 -- (--) -- (--) 21 21 0 0 0
08-11-2018 18.5 (11:50) 10.5 (00:00) 14.5 -- (--) -- (--) 0 0 0 0 0
07-11-2018 20.7 (12:50) 9.7 (00:00) 15.2 -- (--) -- (--) 0 0 0 0 0
06-11-2018 18.6 (14:30) 8.5 (00:00) 13.6 -- (--) -- (--) 0 0 0 0 0
05-11-2018 17.9 (12:10) 9.4 (00:00) 13.6 -- (--) -- (--) 2.6 0 0.2 1.6 0.8
04-11-2018 22 (14:20) 11 (00:00) 16.5 -- (--) -- (--) 0 0 0 0 0
03-11-2018 20.9 (15:00) 6.4 (00:00) 13.6 -- (--) -- (--) 0 0 0 0 0
02-11-2018 20 (15:00) 9.5 (00:00) 14.8 -- (--) -- (--) 0 0 0 0 0
01-11-2018 17.8 (13:40) 7.9 (00:00) 12.8 -- (--) -- (--) 0 0 0 0 0
31-10-2018 17.3 (12:20) 12.4 (00:00) 14.8 -- (--) -- (--) 17.6 7.6 9 0 1
30-10-2018 18 (12:00) 7.1 (00:00) 12.5 -- (--) -- (--) 4.6 0 0 0 4.6
29-10-2018 14.4 (14:30) 7 (00:00) 10.7 -- (--) -- (--) 0 0 0 0 0
28-10-2018 14.9 (15:00) 7.7 (00:00) 11.3 -- (--) -- (--) 6 5.2 0.8 0 0
27-10-2018 17.6 (00:00) 9.5 (00:00) 13.6 -- (--) -- (--) 7.2 1.6 1.6 0.8 3.2
26-10-2018 22.3 (15:50) 12.7 (00:00) 17.5 -- (--) -- (--) 0 0 0 0 0
25-10-2018 -- (--) -- (--) -- -- (--) -- (--) -- -- 0 0 0
24-10-2018 27 (16:50) 11.7 (00:00) 19.3 -- (--) -- (--) 0 0 0 0 0
23-10-2018 23 (16:20) 11.9 (00:00) 17.4 -- (--) -- (--) 0 0 0 0 0
22-10-2018 24.3 (12:40) 15.4 (00:00) 19.8 -- (--) -- (--) 0 0 0 0 0
21-10-2018 24.3 (16:20) 16.2 (00:00) 20.3 -- (--) -- (--) 0 0 0 0 0
20-10-2018 24.1 (13:30) 15.5 (00:00) 19.8 -- (--) -- (--) 2.2 2.2 0 0 0
19-10-2018 21.9 (17:10) 16.7 (00:00) 19.3 -- (--) -- (--) 48.4 14.4 23.4 0 10.6
18-10-2018 24.3 (12:00) 16.6 (00:00) 20.4 -- (--) -- (--) 5.2 0 0 5 0.2

Gráficas

Temp. máximas Temp. mínimas Temp. medias Precipitaciones Rachas de viento máximas Velocidades máximas media en intervalos de 10 minutos

Datos horarios

Fecha y hora oficial Temperatura (ºC) Velocidad del viento (km/h) Dirección del viento Racha (km/h) Dirección de racha Precipitación (mm) Presión (hPa) Tendencia (hPa) Humedad (%)
2018-11-16 23:00:00 15.6 4 Norte 10 Norte 0 -- -- 80
2018-11-16 22:00:00 15.7 3 Norte 9 Norte 0 -- -- 80
2018-11-16 21:00:00 15.8 2 Norte 7 Norte 0 -- -- 81
2018-11-16 20:00:00 15.8 3 Norte 9 Noroeste 0 -- -- 83
2018-11-16 19:00:00 16 3 Norte 9 Este 0 -- -- 83
2018-11-16 18:00:00 16.7 4 Este 22 Este 0 -- -- 80
2018-11-16 17:00:00 17.3 10 Este 31 Este 0 -- -- 78
2018-11-16 16:00:00 18.7 15 Sudeste 27 Este 0 -- -- 76
2018-11-16 15:00:00 19.6 12 Este 27 Este 0 -- -- 75
2018-11-16 14:00:00 19.7 11 Sudeste 24 Sudeste 0 -- -- 76
2018-11-16 13:00:00 20 10 Este 21 Sudeste 0 -- -- 72
2018-11-16 12:00:00 19.8 11 Sudeste 21 Sudeste 0 -- -- 67
2018-11-16 11:00:00 19.5 8 Sudeste 14 Este 0 -- -- 68
2018-11-16 10:00:00 16.3 3 Norte 8 Norte 0 -- -- 81
2018-11-16 09:00:00 15.7 2 Norte 6 Norte 0 -- -- 83
2018-11-16 08:00:00 15.6 0 Calma 7 Noroeste 0 -- -- 82
2018-11-16 07:00:00 15.4 4 Noroeste 7 Norte 0 -- -- 84
2018-11-16 06:00:00 15.4 0 Calma 7 Norte 0 -- -- 84
2018-11-16 05:00:00 15.5 0 Calma 12 Norte 0 -- -- 82
2018-11-16 04:00:00 15.3 4 Norte 10 Norte 0 -- -- 82
2018-11-16 03:00:00 15.4 3 Norte 16 Nordeste 0 -- -- 82
2018-11-16 02:00:00 14.6 5 Nordeste 14 Norte 0 -- -- 88
2018-11-16 01:00:00 15.2 0 Calma 10 Norte 0 -- -- 87
2018-11-16 00:00:00 15.6 3 Norte 10 Norte 0 -- -- 86
2018-11-15 23:00:00 15.8 4 Nordeste 15 Nordeste 0 -- -- 87
2018-11-15 22:00:00 15.1 0 Calma 9 Noroeste 0 -- -- 85
2018-11-15 21:00:00 15.6 4 Norte 10 Nordeste 0 -- -- 83
2018-11-15 20:00:00 16.4 4 Norte 11 Nordeste 0 -- -- 80
2018-11-15 19:00:00 16.7 2 Nordeste 9 Este 0 -- -- 80
2018-11-15 18:00:00 16.9 2 Nordeste 13 Norte 0 -- -- 78
2018-11-15 17:00:00 17.8 3 Norte 12 Norte 0 -- -- 75
2018-11-15 16:00:00 18.4 6 Norte 14 Noroeste 0 -- -- 73
2018-11-15 15:00:00 19.3 3 Norte 12 Nordeste 0 -- -- 74
2018-11-15 14:00:00 20.3 6 Norte 19 Nordeste 0 -- -- 69
2018-11-15 13:00:00 18.8 6 Nordeste 15 Nordeste 0 -- -- 79
2018-11-15 12:00:00 17.9 4 Nordeste 16 Este 0 -- -- 83
2018-11-15 11:00:00 17.1 5 Norte 14 Nordeste 0 -- -- 87
2018-11-15 10:00:00 16.2 4 Nordeste 15 Este 1.4 -- -- 91
2018-11-15 09:00:00 16.1 3 Nordeste 8 Nordeste 0.4 -- -- 90
2018-11-15 08:00:00 16.1 4 Norte 13 Norte 0 -- -- 89
2018-11-15 07:00:00 16.2 4 Norte 11 Nordeste 0 -- -- 91
2018-11-15 06:00:00 16.4 2 Nordeste 13 Sudeste 0 -- -- 92
2018-11-15 05:00:00 16.6 0 Calma 14 Este 0.2 -- -- 90
2018-11-15 04:00:00 16.9 3 Nordeste 12 Este 0 -- -- 87
2018-11-15 03:00:00 16.8 3 Nordeste 14 Norte 0 -- -- 88
2018-11-15 02:00:00 16.5 0 Calma 8 Nordeste 0 -- -- 89
2018-11-15 01:00:00 16.1 3 Norte 7 Norte 0 -- -- 89
2018-11-15 00:00:00 15.8 3 Noroeste 7 Noroeste 0 -- -- 88
2018-11-14 23:00:00 15.9 4 Noroeste 8 Norte 0 -- -- 87
2018-11-14 22:00:00 15.8 4 Noroeste 8 Noroeste 0 -- -- 87
2018-11-14 21:00:00 16.3 2 Norte 6 Noroeste 0 -- -- 87
2018-11-14 20:00:00 16.4 3 Noroeste 9 Norte 0 -- -- 87
2018-11-14 19:00:00 17 3 Nordeste 13 Nordeste 0 -- -- 87
2018-11-14 18:00:00 17.6 6 Este 17 Este 0 -- -- 86
2018-11-14 17:00:00 18.1 6 Sudeste 22 Este 0 -- -- 85
2018-11-14 16:00:00 19.1 9 Este 25 Nordeste 0 -- -- 83
2018-11-14 15:00:00 19 11 Sudeste 22 Sudeste 0 -- -- 82
2018-11-14 14:00:00 19.9 11 Sudeste 22 Este 0 -- -- 76
2018-11-14 13:00:00 19.9 9 Sudeste 24 Sudeste 0 -- -- 73
2018-11-14 12:00:00 20.5 9 Sudeste 24 Sudeste 0 -- -- 69
2018-11-14 11:00:00 19.8 5 Nordeste 12 Nordeste 0 -- -- 73
2018-11-14 10:00:00 18.9 5 Nordeste 13 Este 0 -- -- 75
2018-11-14 09:00:00 17 4 Norte 9 Noroeste 0 -- -- 81
2018-11-14 08:00:00 16.4 3 Norte 8 Norte 0 -- -- 84
2018-11-14 07:00:00 15.6 0 Calma 3 Norte 0 -- -- 85
2018-11-14 06:00:00 15.4 0 Calma 7 Norte 0 -- -- 86
2018-11-14 05:00:00 16 0 Calma 6 Norte 0 -- -- 85
2018-11-14 04:00:00 16.2 4 Noroeste 7 Nordeste 0 -- -- 84
2018-11-14 03:00:00 15.7 0 Calma 8 Norte 0 -- -- 86
2018-11-14 02:00:00 16.1 3 Noroeste 10 Norte 0 -- -- 84
2018-11-14 01:00:00 16.5 5 Norte 10 Norte 0 -- -- 84
2018-11-14 00:00:00 16.1 3 Norte 8 Norte 0 -- -- 86
2018-11-13 23:00:00 16.7 2 Noroeste 6 Noroeste 0 -- -- 88
2018-11-13 22:00:00 16.7 3 Noroeste 7 Noroeste 0 -- -- 90
2018-11-13 21:00:00 16.6 0 Calma 5 Noroeste 0 -- -- 90
2018-11-13 20:00:00 17.2 0 Calma 13 Este 0 -- -- 90
2018-11-13 19:00:00 17.8 5 Este 16 Este 0 -- -- 88
2018-11-13 18:00:00 18.2 6 Este 21 Sudeste 0 -- -- 87
2018-11-13 17:00:00 19 8 Este 24 Este 0 -- -- 83
2018-11-13 16:00:00 20.1 10 Sudeste 26 Sudeste 0 -- -- 77
2018-11-13 15:00:00 21.3 12 Sudeste 24 Sudeste 0 -- -- 72
2018-11-13 14:00:00 21.7 13 Sudeste 28 Este 0 -- -- 71
2018-11-13 13:00:00 22.1 12 Sudeste 19 Este 0 -- -- 64
2018-11-13 12:00:00 22.4 6 Este 21 Este 0 -- -- 63
2018-11-13 11:00:00 20.9 5 Este 17 Este 0 -- -- 68
2018-11-13 10:00:00 18.4 5 Norte 12 Noroeste 0 -- -- 76
2018-11-13 09:00:00 15.3 6 Noroeste 12 Noroeste 0 -- -- 85
2018-11-13 08:00:00 14.1 6 Norte 11 Noroeste 0 -- -- 87
2018-11-13 07:00:00 14 6 Norte 10 Norte 0 -- -- 89
2018-11-13 06:00:00 13.9 4 Noroeste 7 Norte 0 -- -- 90
2018-11-13 05:00:00 14.4 0 Calma 10 Nordeste 0 -- -- 88
2018-11-13 04:00:00 14.4 5 Norte 9 Norte 0 -- -- 89
2018-11-13 03:00:00 14.8 5 Norte 10 Norte 0 -- -- 88
2018-11-13 02:00:00 15.7 3 Norte 12 Norte 0 -- -- 87
2018-11-13 01:00:00 15.5 5 Norte 11 Noroeste 0 -- -- 88
2018-11-13 00:00:00 15.5 4 Noroeste 12 Nordeste 0 -- -- 87
2018-11-12 23:00:00 15.8 4 Norte 10 Nordeste 0 -- -- 88
2018-11-12 22:00:00 15.3 4 Noroeste 12 Norte 0 -- -- 89
2018-11-12 21:00:00 16.2 3 Norte 8 Norte 0 -- -- 87
2018-11-12 20:00:00 16.5 3 Norte 8 Nordeste 0 -- -- 88
2018-11-12 19:00:00 17.4 5 Este 19 Este 0 -- -- 90
2018-11-12 18:00:00 17.9 10 Este 24 Este 0 -- -- 88
2018-11-12 17:00:00 18.8 9 Este 26 Sudeste 0 -- -- 83
2018-11-12 16:00:00 19.6 11 Sudeste 24 Sudeste 0 -- -- 77
2018-11-12 15:00:00 20.1 14 Sudeste 31 Este 0 -- -- 77
2018-11-12 14:00:00 20.6 14 Sudeste 32 Este 0 -- -- 74
2018-11-12 13:00:00 20.8 13 Sudeste 27 Este 0 -- -- 70
2018-11-12 12:00:00 20.4 10 Sudeste 20 Sudeste 0 -- -- 67
2018-11-12 11:00:00 20.3 6 Sudeste 15 Este 0 -- -- 67
2018-11-12 10:00:00 18.1 6 Este 18 Este 0 -- -- 78
2018-11-12 09:00:00 15.5 3 Este 10 Este 0 -- -- 95
2018-11-12 08:00:00 14 2 Este 4 Sudeste 0 -- -- 94
2018-11-12 07:00:00 14.6 0 Calma 4 Sudeste 0 -- -- 93
2018-11-12 06:00:00 15.3 0 Calma 5 Este 0 -- -- 91
2018-11-12 05:00:00 16.8 3 Este 7 Sudeste 0 -- -- 88
2018-11-12 04:00:00 17.1 3 Sur 13 Sur 0 -- -- 88
2018-11-12 03:00:00 17.1 9 Sudeste 15 Sur 0 -- -- 88
2018-11-12 02:00:00 17.2 6 Sudeste 18 Sudeste 0 -- -- 86
2018-11-12 01:00:00 17.2 11 Sudeste 19 Este 0 -- -- 89
2018-11-12 00:00:00 17 6 Sudeste 13 Sudeste 0 -- -- 94
2018-11-11 23:00:00 16.4 5 Sudeste 10 Sudeste 0 -- -- 93
2018-11-11 22:00:00 16.4 6 Este 10 Este 0 -- -- 94
2018-11-11 21:00:00 16.3 3 Este 8 Este 0 -- -- 92
2018-11-11 20:00:00 16.3 4 Este 9 Este 0 -- -- 91
2018-11-11 19:00:00 17.2 4 Este 11 Sudeste 0 -- -- 88
2018-11-11 18:00:00 17.5 6 Sudeste 13 Este 0 -- -- 86
2018-11-11 17:00:00 18.4 8 Sudeste 14 Este 0 -- -- 84
2018-11-11 16:00:00 20.1 10 Este 18 Este 0 -- -- 78
2018-11-11 15:00:00 20.5 7 Sudeste 14 Este 0 -- -- 76
2018-11-11 14:00:00 20.2 8 Sudeste 15 Sudeste 0 -- -- 71
2018-11-11 13:00:00 20.9 10 Sudeste 17 Sudeste 0 -- -- 61
2018-11-11 12:00:00 22.9 4 Noroeste 9 Noroeste 0 -- -- 55
2018-11-11 11:00:00 20.7 2 Sudeste 8 Sudeste 0 -- -- 63
2018-11-11 10:00:00 17.7 4 Sudeste 9 Sur 0 -- -- 70
2018-11-11 09:00:00 14.9 2 Noroeste 4 Norte 0 -- -- 83
2018-11-11 08:00:00 12.7 0 Calma 5 Sudeste 0 -- -- 86
2018-11-11 07:00:00 12.7 2 Este 8 Nordeste 0 -- -- 85
2018-11-11 06:00:00 12.3 3 Norte 9 Norte 0 -- -- 90
2018-11-11 05:00:00 12 0 Calma 6 Noroeste 0 -- -- 92
2018-11-11 04:00:00 12.2 3 Noroeste 8 Noroeste 0 -- -- 92
2018-11-11 03:00:00 12.2 2 Norte 6 Noroeste 0 -- -- 91
2018-11-11 02:00:00 12.4 4 Noroeste 6 Norte 0 -- -- 89
2018-11-11 01:00:00 12.9 2 Norte 5 Noroeste 0 -- -- 89
2018-11-11 00:00:00 12.8 3 Noroeste 14 Noroeste 0 -- -- 91
2018-11-10 23:00:00 12.8 3 Noroeste 8 Noroeste 0 -- -- 90
2018-11-10 22:00:00 13.7 2 Este 5 Norte 0 -- -- 88
2018-11-10 21:00:00 13.6 0 Calma 6 Noroeste 0 -- -- 87
2018-11-10 20:00:00 14.3 0 Calma 6 Norte 0 -- -- 85
2018-11-10 19:00:00 15.3 4 Norte 6 Norte 0 -- -- 83
2018-11-10 18:00:00 16.3 0 Calma 6 Sudoeste 0 -- -- 79
2018-11-10 17:00:00 17.6 3 Sur 13 Sur 0 -- -- 72
2018-11-10 16:00:00 19.4 6 Sudeste 12 Sudeste 0 -- -- 63
2018-11-10 15:00:00 19.6 5 Sudeste 10 Sudeste 0 -- -- 59
2018-11-10 14:00:00 19 5 Sudeste 13 Sudeste 0 -- -- 59
2018-11-10 13:00:00 18.5 5 Sudoeste 13 Sudoeste 0 -- -- 60
2018-11-10 12:00:00 18.6 4 Sudoeste 10 Sudeste 0 -- -- 57
2018-11-10 11:00:00 17.6 3 Oeste 6 Oeste 0 -- -- 58
2018-11-10 10:00:00 14.3 2 Noroeste 6 Norte 0 -- -- 69
2018-11-10 09:00:00 11.8 0 Calma 6 Este 0 -- -- 76
2018-11-10 08:00:00 10 5 Noroeste 13 Noroeste 0 -- -- 80
2018-11-10 07:00:00 9.8 5 Noroeste 7 Noroeste 0 -- -- 80
2018-11-10 06:00:00 10.1 0 Calma 5 Noroeste 0 -- -- 79
2018-11-10 05:00:00 9.7 3 Noroeste 9 Noroeste 0 -- -- 81
2018-11-10 04:00:00 9.4 0 Calma 5 Nordeste 0 -- -- 79
2018-11-10 03:00:00 9.7 0 Calma 6 Nordeste 0 -- -- 76
2018-11-10 02:00:00 9.9 0 Calma 7 Norte 0 -- -- 73
2018-11-10 01:00:00 10.1 2 Noroeste 15 Noroeste 0 -- -- 72
2018-11-10 00:00:00 10.8 4 Noroeste 19 Noroeste 0 -- -- 68
2018-11-09 23:00:00 10.4 3 Noroeste 9 Oeste 0 -- -- 76
2018-11-09 22:00:00 11.1 2 Oeste 6 Noroeste 0 -- -- 73
2018-11-09 21:00:00 11.9 0 Calma 6 Oeste 0 -- -- 73
2018-11-09 20:00:00 12.5 2 Oeste 5 Norte 0 -- -- 70
2018-11-09 19:00:00 13.4 2 Noroeste 8 Noroeste 0 -- -- 69
2018-11-09 18:00:00 14.9 4 Noroeste 15 Noroeste 0 -- -- 65
2018-11-09 17:00:00 17.1 5 Noroeste 23 Norte 0 -- -- 58
2018-11-09 16:00:00 18.5 9 Noroeste 27 Noroeste 0 -- -- 55
2018-11-09 15:00:00 18.5 6 Noroeste 28 Noroeste 0 -- -- 56
2018-11-09 14:00:00 18 10 Noroeste 30 Noroeste 0 -- -- 57
2018-11-09 13:00:00 17.2 9 Noroeste 26 Noroeste 0 -- -- 62
2018-11-09 12:00:00 16.3 7 Noroeste 24 Oeste 0 -- -- 62
2018-11-09 11:00:00 17 8 Noroeste 21 Noroeste 0 -- -- 62
2018-11-09 10:00:00 15.6 4 Oeste 12 Noroeste 0 -- -- 66
2018-11-09 09:00:00 12.7 5 Noroeste 19 Noroeste 0 -- -- 79
2018-11-09 08:00:00 12.5 4 Noroeste 10 Oeste 0 -- -- 89
2018-11-09 07:00:00 12.7 3 Oeste 16 Noroeste 0 -- -- 88
2018-11-09 06:00:00 13 9 Norte 22 Noroeste 0 -- -- 86
2018-11-09 05:00:00 12.6 7 Norte 18 Norte 0 -- -- 91
2018-11-09 04:00:00 12.6 5 Norte 20 Noroeste 5 -- -- 93
2018-11-09 03:00:00 13.6 6 Norte 14 Noroeste 4 -- -- 93
2018-11-09 02:00:00 14.8 4 Norte 19 Sudoeste 12 -- -- 91
2018-11-09 01:00:00 16.9 9 Sudeste 18 Sudeste 0 -- -- 82
2018-11-09 00:00:00 16.9 11 Sudeste 22 Sudeste 0 -- -- 84
2018-11-08 23:00:00 16.6 10 Sudeste 17 Sudeste 0 -- -- 88
2018-11-08 22:00:00 15.4 3 Este 5 Este 0 -- -- 88
2018-11-08 21:00:00 15.2 3 Este 11 Este 0 -- -- 87
2018-11-08 20:00:00 15.4 4 Este 12 Nordeste 0 -- -- 85
2018-11-08 19:00:00 15.5 3 Este 9 Este 0 -- -- 83
2018-11-08 18:00:00 15.8 4 Este 12 Este 0 -- -- 80
2018-11-08 17:00:00 16.5 2 Este 6 Este 0 -- -- 77
2018-11-08 16:00:00 17.1 3 Este 11 Este 0 -- -- 72
2018-11-08 15:00:00 17 3 Nordeste 12 Sudeste 0 -- -- 71
2018-11-08 14:00:00 17.6 6 Este 17 Este 0 -- -- 69
2018-11-08 13:00:00 17.9 5 Este 23 Este 0 -- -- 67
2018-11-08 12:00:00 18.2 9 Este 25 Este 0 -- -- 65
2018-11-08 11:00:00 17.5 8 Este 26 Este 0 -- -- 66
2018-11-08 10:00:00 16.1 4 Este 13 Sudeste 0 -- -- 73
2018-11-08 09:00:00 14.2 3 Noroeste 6 Noroeste 0 -- -- 79
2018-11-08 08:00:00 12.2 4 Noroeste 8 Noroeste 0 -- -- 81
2018-11-08 07:00:00 12.4 4 Norte 12 Norte 0 -- -- 78
2018-11-08 06:00:00 12.1 3 Nordeste 12 Noroeste 0 -- -- 79
2018-11-08 05:00:00 10.9 4 Noroeste 8 Noroeste 0 -- -- 85
2018-11-08 04:00:00 10.8 2 Noroeste 5 Noroeste 0 -- -- 84
2018-11-08 03:00:00 11.6 2 Nordeste 9 Sudeste 0 -- -- 80
2018-11-08 02:00:00 12.3 3 Sudeste 9 Nordeste 0 -- -- 75
2018-11-08 01:00:00 12.5 6 Norte 12 Noroeste 0 -- -- 75
2018-11-08 00:00:00 11.9 4 Norte 10 Norte 0 -- -- 78
2018-11-07 23:00:00 12.1 2 Noroeste 10 Norte 0 -- -- 79
2018-11-07 22:00:00 12.8 4 Noroeste 7 Noroeste 0 -- -- 80
2018-11-07 21:00:00 13.8 2 Noroeste 9 Norte 0 -- -- 76
2018-11-07 20:00:00 15.3 4 Noroeste 9 Oeste 0 -- -- 74
2018-11-07 19:00:00 16.1 3 Oeste 15 Sudoeste 0 -- -- 77
2018-11-07 18:00:00 16 3 Oeste 17 Oeste 0 -- -- 73
2018-11-07 17:00:00 17 4 Sudoeste 18 Oeste 0 -- -- 69
2018-11-07 16:00:00 18.9 9 Sudoeste 18 Sudoeste 0 -- -- 62
2018-11-07 15:00:00 19.6 5 Sudoeste 17 Oeste 0 -- -- 55
2018-11-07 14:00:00 19.5 5 Sudoeste 14 Oeste 0 -- -- 52
2018-11-07 13:00:00 20.1 8 Sudoeste 14 Sudeste 0 -- -- 49
2018-11-07 12:00:00 20.5 4 Sudeste 9 Sudeste 0 -- -- 48
2018-11-07 11:00:00 19.3 3 Noroeste 14 Norte 0 -- -- 49
2018-11-07 10:00:00 16.9 6 Noroeste 9 Noroeste 0 -- -- 59
2018-11-07 09:00:00 12.8 6 Norte 15 Norte 0 -- -- 67
2018-11-07 08:00:00 11.5 3 Noroeste 13 Nordeste 0 -- -- 71
2018-11-07 07:00:00 10 3 Norte 8 Norte 0 -- -- 75
2018-11-07 06:00:00 11.2 5 Norte 13 Norte 0 -- -- 68
2018-11-07 05:00:00 10.2 6 Noroeste 12 Norte 0 -- -- 74
2018-11-07 04:00:00 10.5 5 Norte 12 Noroeste 0 -- -- 72
2018-11-07 03:00:00 10.5 6 Noroeste 11 Noroeste 0 -- -- 72
2018-11-07 02:00:00 10.5 5 Norte 12 Noroeste 0 -- -- 72
2018-11-07 01:00:00 9.7 4 Noroeste 8 Noroeste 0 -- -- 79
2018-11-07 00:00:00 10 3 Norte 10 Norte 0 -- -- 79
2018-11-06 23:00:00 10 5 Noroeste 8 Noroeste 0 -- -- 80
2018-11-06 22:00:00 10.4 4 Noroeste 8 Noroeste 0 -- -- 79
2018-11-06 21:00:00 11.1 2 Noroeste 5 Noroeste 0 -- -- 76
2018-11-06 20:00:00 12.3 2 Noroeste 6 Noroeste 0 -- -- 72
2018-11-06 19:00:00 13.7 3 Noroeste 8 Oeste 0 -- -- 68
2018-11-06 18:00:00 14.2 0 Calma 8 Oeste 0 -- -- 64
2018-11-06 17:00:00 15.6 3 Oeste 16 Oeste 0 -- -- 56
2018-11-06 16:00:00 16.6 4 Noroeste 19 Noroeste 0 -- -- 53
2018-11-06 15:00:00 17.6 6 Oeste 17 Sudoeste 0 -- -- 49
2018-11-06 14:00:00 18.2 6 Oeste 24 Noroeste 0 -- -- 48
2018-11-06 13:00:00 16.2 7 Noroeste 26 Noroeste 0 -- -- 53
2018-11-06 12:00:00 16.2 9 Noroeste 24 Oeste 0 -- -- 55
2018-11-06 11:00:00 15.2 10 Noroeste 31 Noroeste 0 -- -- 56
2018-11-06 10:00:00 14.6 6 Oeste 26 Oeste 0 -- -- 62
2018-11-06 09:00:00 11 4 Oeste 15 Oeste 0 -- -- 76
2018-11-06 08:00:00 10.8 5 Oeste 18 Sudoeste 0 -- -- 74
2018-11-06 07:00:00 8.7 3 Oeste 9 Oeste 0 -- -- 85
2018-11-06 06:00:00 8.7 2 Noroeste 6 Noroeste 0 -- -- 85
2018-11-06 05:00:00 8.6 3 Noroeste 10 Noroeste 0 -- -- 86
2018-11-06 04:00:00 8.9 3 Noroeste 9 Noroeste 0 -- -- 87
2018-11-06 03:00:00 9.3 3 Noroeste 8 Noroeste 0 -- -- 89
2018-11-06 02:00:00 9.6 3 Noroeste 6 Noroeste 0 -- -- 89
2018-11-06 01:00:00 10.6 3 Noroeste 8 Noroeste 0 -- -- 87
2018-11-06 00:00:00 12.1 3 Norte 11 Nordeste 0 -- -- 79
2018-11-05 23:00:00 12.5 3 Noroeste 17 Noroeste 0 -- -- 83
2018-11-05 22:00:00 13.6 5 Noroeste 28 Sudoeste 0 -- -- 87
2018-11-05 21:00:00 14 9 Sudoeste 28 Sudoeste 0.4 -- -- 83
2018-11-05 20:00:00 14 7 Oeste 18 Sudoeste 0.4 -- -- 86
2018-11-05 19:00:00 14.9 4 Oeste 22 Oeste 0 -- -- 80
2018-11-05 18:00:00 16.4 5 Oeste 22 Sur 0 -- -- 86
2018-11-05 17:00:00 17 19 Sudeste 36 Sudeste 0.6 -- -- 90
2018-11-05 16:00:00 17.3 20 Sudeste 35 Sudeste 0.8 -- -- 88
2018-11-05 15:00:00 17.3 17 Sudeste 36 Este 0.2 -- -- 85
2018-11-05 14:00:00 17.6 15 Sudeste 28 Sudeste 0 -- -- 80
2018-11-05 13:00:00 17.7 10 Sudeste 24 Sudeste 0 -- -- 80
2018-11-05 12:00:00 17.8 15 Sudeste 33 Sudeste 0 -- -- 82
2018-11-05 11:00:00 15.9 10 Sudeste 21 Este 0 -- -- 90
2018-11-05 10:00:00 14.4 3 Este 11 Este 0.2 -- -- 84
2018-11-05 09:00:00 13.8 2 Nordeste 8 Nordeste 0 -- -- 84
2018-11-05 08:00:00 12.1 2 Este 6 Sudeste 0 -- -- 89
2018-11-05 07:00:00 11.7 2 Este 6 Nordeste 0 -- -- 88
2018-11-05 06:00:00 10.9 3 Sudeste 5 Sudeste 0 -- -- 90
2018-11-05 05:00:00 9.8 0 Calma 6 Noroeste 0 -- -- 89
2018-11-05 04:00:00 9.5 0 Calma 6 Noroeste 0 -- -- 86
2018-11-05 03:00:00 10.2 0 Calma 5 Oeste 0 -- -- 84
2018-11-05 02:00:00 10.4 2 Noroeste 3 Noroeste 0 -- -- 83
2018-11-05 01:00:00 11.4 0 Calma 6 Noroeste 0 -- -- 79
2018-11-05 00:00:00 11.7 2 Noroeste 6 Oeste 0 -- -- 79
2018-11-04 23:00:00 12.2 3 Noroeste 7 Noroeste 0 -- -- 80
2018-11-04 22:00:00 12.5 2 Noroeste 6 Noroeste 0 -- -- 81
2018-11-04 21:00:00 13 3 Noroeste 5 Noroeste 0 -- -- 79
2018-11-04 20:00:00 14.2 2 Noroeste 8 Oeste 0 -- -- 75
2018-11-04 19:00:00 15.8 2 Oeste 9 Oeste 0 -- -- 69
2018-11-04 18:00:00 16.8 3 Oeste 9 Sudoeste 0 -- -- 64
2018-11-04 17:00:00 18.7 4 Sudoeste 15 Oeste 0 -- -- 53
2018-11-04 16:00:00 20.3 5 Sudoeste 15 Oeste 0 -- -- 50
2018-11-04 15:00:00 21.2 6 Sudoeste 16 Sudoeste 0 -- -- 46
2018-11-04 14:00:00 21.5 3 Sudoeste 12 Noroeste 0 -- -- 41
2018-11-04 13:00:00 20.6 5 Oeste 13 Oeste 0 -- -- 48
2018-11-04 12:00:00 19.8 4 Oeste 17 Norte 0 -- -- 48
2018-11-04 11:00:00 18.5 8 Norte 20 Noroeste 0 -- -- 46
2018-11-04 10:00:00 16.7 5 Norte 16 Nordeste 0 -- -- 49
2018-11-04 09:00:00 13.4 6 Norte 18 Norte 0 -- -- 58
2018-11-04 08:00:00 11.4 8 Norte 19 Norte 0 -- -- 62
2018-11-04 07:00:00 11.2 9 Norte 27 Norte 0 -- -- 63
2018-11-04 06:00:00 11.7 8 Norte 20 Noroeste 0 -- -- 64
2018-11-04 05:00:00 11.9 9 Norte 21 Norte 0 -- -- 62
2018-11-04 04:00:00 11.8 8 Norte 18 Norte 0 -- -- 62
2018-11-04 03:00:00 11.1 6 Norte 16 Noroeste 0 -- -- 67
2018-11-04 02:00:00 12 9 Noroeste 21 Norte 0 -- -- 62
2018-11-04 01:00:00 12.5 6 Norte 16 Norte 0 -- -- 59
2018-11-04 00:00:00 12.7 7 Norte 19 Norte 0 -- -- 57
2018-11-03 23:00:00 12.7 9 Norte 19 Noroeste 0 -- -- 56
2018-11-03 22:00:00 12.3 5 Norte 17 Norte 0 -- -- 60
2018-11-03 21:00:00 12.2 7 Noroeste 15 Noroeste 0 -- -- 62
2018-11-03 20:00:00 12.4 6 Norte 13 Noroeste 0 -- -- 66
2018-11-03 19:00:00 13.4 7 Noroeste 15 Noroeste 0 -- -- 64
2018-11-03 18:00:00 15 3 Norte 10 Oeste 0 -- -- 61
2018-11-03 17:00:00 17.5 4 Noroeste 11 Norte 0 -- -- 52
2018-11-03 16:00:00 19.7 6 Norte 16 Noroeste 0 -- -- 43
2018-11-03 15:00:00 20.9 4 Norte 13 Noroeste 0 -- -- 39
2018-11-03 14:00:00 20 4 Sur 14 Noroeste 0 -- -- 43
2018-11-03 13:00:00 19.7 4 Noroeste 16 Nordeste 0 -- -- 45
2018-11-03 12:00:00 18.5 4 Noroeste 11 Norte 0 -- -- 48
2018-11-03 11:00:00 16.6 4 Noroeste 12 Noroeste 0 -- -- 54
2018-11-03 10:00:00 13.9 7 Noroeste 15 Noroeste 0 -- -- 63
2018-11-03 09:00:00 10 6 Noroeste 13 Noroeste 0 -- -- 80
2018-11-03 08:00:00 6.4 3 Noroeste 6 Noroeste 0 -- -- 89
2018-11-03 07:00:00 7.2 3 Norte 7 Noroeste 0 -- -- 88
2018-11-03 06:00:00 7.3 4 Noroeste 10 Noroeste 0 -- -- 89
2018-11-03 05:00:00 7.8 3 Noroeste 6 Noroeste 0 -- -- 88
2018-11-03 04:00:00 8.2 0 Calma 11 Noroeste 0 -- -- 89
2018-11-03 03:00:00 8.9 4 Noroeste 8 Noroeste 0 -- -- 87
2018-11-03 02:00:00 9.3 3 Noroeste 5 Noroeste 0 -- -- 87
2018-11-03 01:00:00 9.6 2 Noroeste 6 Noroeste 0 -- -- 87
2018-11-03 00:00:00 9.9 0 Calma 6 Noroeste 0 -- -- 87
2018-11-02 23:00:00 11.1 0 Calma 8 Noroeste 0 -- -- 82
2018-11-02 22:00:00 11.9 5 Noroeste 12 Noroeste 0 -- -- 82
2018-11-02 21:00:00 12.1 4 Noroeste 12 Noroeste 0 -- -- 83
2018-11-02 20:00:00 12.7 3 Noroeste 10 Noroeste 0 -- -- 78
2018-11-02 19:00:00 13.9 3 Noroeste 6 Norte 0 -- -- 71
2018-11-02 18:00:00 15.9 0 Calma 5 Sudoeste 0 -- -- 64
2018-11-02 17:00:00 17.8 4 Sudeste 14 Nordeste 0 -- -- 56
2018-11-02 16:00:00 19.6 4 Norte 17 Norte 0 -- -- 49
2018-11-02 15:00:00 20 5 Noroeste 17 Norte 0 -- -- 49
2018-11-02 14:00:00 18.7 6 Norte 21 Nordeste 0 -- -- 54
2018-11-02 13:00:00 16.7 8 Norte 19 Norte 0 -- -- 60
2018-11-02 12:00:00 17 8 Norte 19 Norte 0 -- -- 60
2018-11-02 11:00:00 13.7 6 Noroeste 12 Noroeste 0 -- -- 73
2018-11-02 10:00:00 12.6 6 Noroeste 12 Norte 0 -- -- 76
2018-11-02 09:00:00 11.5 6 Noroeste 12 Norte 0 -- -- 77
2018-11-02 08:00:00 10.3 0 Calma 6 Noroeste 0 -- -- 83
2018-11-02 07:00:00 10.1 4 Norte 11 Noroeste 0 -- -- 81
2018-11-02 06:00:00 10.4 3 Noroeste 9 Nordeste 0 -- -- 80
2018-11-02 05:00:00 10 2 Nordeste 11 Noroeste 0 -- -- 81
2018-11-02 04:00:00 9.8 3 Noroeste 10 Noroeste 0 -- -- 82
2018-11-02 03:00:00 10.8 3 Norte 11 Norte 0 -- -- 78
2018-11-02 02:00:00 11 5 Norte 11 Norte 0 -- -- 77
2018-11-02 01:00:00 11.5 5 Norte 16 Norte 0 -- -- 75
2018-11-02 00:00:00 11.7 4 Norte 13 Norte 0 -- -- 73
2018-11-01 23:00:00 11.8 6 Norte 13 Nordeste 0 -- -- 74
2018-11-01 22:00:00 11 4 Norte 10 Norte 0 -- -- 76
2018-11-01 21:00:00 10.6 3 Noroeste 9 Norte 0 -- -- 79
2018-11-01 20:00:00 11.3 2 Norte 5 Norte 0 -- -- 76
2018-11-01 19:00:00 12.1 3 Noroeste 5 Noroeste 0 -- -- 74
2018-11-01 18:00:00 13.8 2 Norte 12 Norte 0 -- -- 68
2018-11-01 17:00:00 16 4 Norte 17 Noroeste 0 -- -- 58
2018-11-01 16:00:00 16.9 7 Norte 24 Nordeste 0 -- -- 54
2018-11-01 15:00:00 16.7 8 Norte 20 Norte 0 -- -- 57
2018-11-01 14:00:00 17 8 Norte 21 Nordeste 0 -- -- 56
2018-11-01 13:00:00 17.3 7 Nordeste 24 Norte 0 -- -- 56
2018-11-01 12:00:00 17.1 10 Norte 25 Noroeste 0 -- -- 58
2018-11-01 11:00:00 15.8 9 Norte 23 Norte 0 -- -- 63
2018-11-01 10:00:00 13.9 9 Norte 21 Norte 0 -- -- 71
2018-11-01 09:00:00 11.5 7 Norte 17 Norte 0 -- -- 80
2018-11-01 08:00:00 8.5 5 Norte 15 Nordeste 0 -- -- 91
2018-11-01 07:00:00 8.2 3 Norte 11 Norte 0 -- -- 93
2018-11-01 06:00:00 8.3 3 Noroeste 6 Noroeste 0 -- -- 91
2018-11-01 05:00:00 9.4 2 Noroeste 7 Noroeste 0 -- -- 89
2018-11-01 04:00:00 10.1 2 Nordeste 10 Noroeste 0 -- -- 89
2018-11-01 03:00:00 10.3 6 Noroeste 12 Norte 0 -- -- 90
2018-11-01 02:00:00 10.9 3 Noroeste 12 Noroeste 0 -- -- 87
2018-11-01 01:00:00 12.4 4 Noroeste 15 Sudoeste 0 -- -- 83
2018-11-01 00:00:00 14.6 7 Sur 19 Sudeste 0 -- -- 69
2018-10-31 23:00:00 14.4 6 Sudoeste 28 Sudeste 0 -- -- 72
2018-10-31 22:00:00 13.6 14 Sudeste 42 Sudeste 1 -- -- 74
2018-10-31 21:00:00 15.3 9 Sur 28 Sudoeste 0 -- -- 62
2018-10-31 20:00:00 15.2 10 Sur 27 Sudeste 0 -- -- 59
2018-10-31 19:00:00 15.2 10 Sur 30 Sudoeste 0 -- -- 61
2018-10-31 18:00:00 15.5 11 Sur 28 Este 0 -- -- 61
2018-10-31 17:00:00 16.1 10 Sudeste 29 Sur 0 -- -- 61
2018-10-31 16:00:00 16.4 12 Sur 29 Sudeste 0 -- -- 58
2018-10-31 15:00:00 16.1 10 Sur 28 Sur 0 -- -- 60
2018-10-31 14:00:00 16.1 8 Sur 32 Sudoeste 0 -- -- 63
2018-10-31 13:00:00 16.5 12 Sur 38 Sudeste 0 -- -- 62
2018-10-31 12:00:00 17.1 14 Sur 36 Oeste 0.2 -- -- 67
2018-10-31 11:00:00 16.1 19 Sudeste 33 Sudeste 0.2 -- -- 78
2018-10-31 10:00:00 14.9 14 Sudeste 35 Este 0 -- -- 85
2018-10-31 09:00:00 14 6 Sudeste 17 Sudeste 0.2 -- -- 89
2018-10-31 08:00:00 13.6 4 Sur 32 Sudoeste 3.4 -- -- 90
2018-10-31 07:00:00 13.6 10 Sudoeste 30 Sudeste 5 -- -- 90
2018-10-31 06:00:00 13.6 15 Sudeste 31 Sudeste 1.8 -- -- 90
2018-10-31 05:00:00 12.7 5 Este 21 Sudeste 2.4 -- -- 93
2018-10-31 04:00:00 13.8 5 Este 27 Sudeste 0.4 -- -- 89
2018-10-31 03:00:00 14.1 13 Sudeste 34 Este 0.4 -- -- 85
2018-10-31 02:00:00 14.4 15 Sudeste 38 Sudeste 1.2 -- -- 87
2018-10-31 01:00:00 14 15 Sudeste 29 Sudeste 1.4 -- -- 89
2018-10-31 00:00:00 12.4 6 Este 14 Este 1 -- -- 92
2018-10-30 23:00:00 12.4 5 Este 14 Este 3.6 -- -- 89
2018-10-30 22:00:00 13.6 5 Este 19 Este 0 -- -- 77
2018-10-30 21:00:00 13.9 3 Este 13 Este 0 -- -- 69
2018-10-30 20:00:00 14 3 Nordeste 6 Norte 0 -- -- 65
2018-10-30 19:00:00 13.9 0 Calma 4 Nordeste 0 -- -- 66
2018-10-30 18:00:00 14.2 0 Calma 13 Oeste 0 -- -- 62
2018-10-30 17:00:00 15.3 6 Oeste 21 Oeste 0 -- -- 57
2018-10-30 16:00:00 15.9 7 Sur 18 Sudeste 0 -- -- 53
2018-10-30 15:00:00 16 8 Sudeste 16 Este 0 -- -- 53
2018-10-30 14:00:00 16.3 6 Sudeste 16 Este 0 -- -- 46
2018-10-30 13:00:00 17.5 5 Sur 12 Sur 0 -- -- 43
2018-10-30 12:00:00 18 5 Sur 12 Sur 0 -- -- 38
2018-10-30 11:00:00 16.4 5 Noroeste 13 Noroeste 0 -- -- 43
2018-10-30 10:00:00 13.2 6 Norte 14 Norte 0 -- -- 51
2018-10-30 09:00:00 9.7 5 Norte 14 Norte 0 -- -- 61
2018-10-30 08:00:00 7.3 3 Noroeste 9 Noroeste 0 -- -- 68
2018-10-30 07:00:00 7.9 3 Norte 12 Oeste 0 -- -- 64
2018-10-30 06:00:00 8.6 5 Oeste 23 Oeste 0 -- -- 59
2018-10-30 05:00:00 8.1 3 Sudoeste 16 Sudoeste 0 -- -- 61
2018-10-30 04:00:00 8.4 5 Oeste 19 Oeste 0 -- -- 59
2018-10-30 03:00:00 8.8 6 Oeste 28 Sudoeste 0 -- -- 58
2018-10-30 02:00:00 8.9 6 Noroeste 28 Noroeste 0 -- -- 57
2018-10-30 01:00:00 9.3 7 Oeste 28 Noroeste 0 -- -- 52
2018-10-30 00:00:00 9.5 10 Noroeste 30 Noroeste 0 -- -- 50
2018-10-29 23:00:00 9.4 12 Noroeste 34 Noroeste 0 -- -- 53
2018-10-29 22:00:00 9.4 10 Noroeste 40 Noroeste 0 -- -- 53
2018-10-29 21:00:00 9.5 12 Noroeste 31 Noroeste 0 -- -- 53
2018-10-29 20:00:00 9.7 14 Noroeste 56 Noroeste 0 -- -- 56
2018-10-29 19:00:00 10.1 22 Noroeste 51 Noroeste 0 -- -- 56
2018-10-29 18:00:00 10.8 21 Noroeste 55 Noroeste 0 -- -- 56
2018-10-29 17:00:00 12.3 16 Noroeste 44 Noroeste 0 -- -- 53
2018-10-29 16:00:00 13.5 18 Noroeste 43 Noroeste 0 -- -- 50
2018-10-29 15:00:00 14.1 18 Noroeste 44 Norte 0 -- -- 49
2018-10-29 14:00:00 14.1 14 Noroeste 44 Noroeste 0 -- -- 51
2018-10-29 13:00:00 13.2 13 Noroeste 42 Noroeste 0 -- -- 53
2018-10-29 12:00:00 11.2 13 Noroeste 40 Noroeste 0 -- -- 58
2018-10-29 11:00:00 10.3 13 Noroeste 39 Noroeste 0 -- -- 59
2018-10-29 10:00:00 9.7 12 Noroeste 35 Noroeste 0 -- -- 60
2018-10-29 09:00:00 8.5 5 Noroeste 14 Noroeste 0 -- -- 65
2018-10-29 08:00:00 7.5 3 Este 14 Oeste 0 -- -- 68
2018-10-29 07:00:00 7.4 0 Calma 19 Noroeste 0 -- -- 68
2018-10-29 06:00:00 7.3 3 Noroeste 11 Noroeste 0 -- -- 67
2018-10-29 05:00:00 7.1 3 Noroeste 9 Noroeste 0 -- -- 68
2018-10-29 04:00:00 7.2 3 Noroeste 9 Norte 0 -- -- 72
2018-10-29 03:00:00 7 2 Norte 6 Norte 0 -- -- 73
2018-10-29 02:00:00 7.3 2 Oeste 5 Oeste 0 -- -- 69
2018-10-29 01:00:00 7.6 3 Noroeste 6 Oeste 0 -- -- 69
2018-10-29 00:00:00 8.2 2 Noroeste 13 Norte 0 -- -- 70
2018-10-28 23:00:00 8.3 5 Noroeste 13 Norte 0 -- -- 70
2018-10-28 22:00:00 8.1 0 Calma 8 Noroeste 0 -- -- 74
2018-10-28 21:00:00 8.6 4 Noroeste 12 Noroeste 0 -- -- 69
2018-10-28 20:00:00 9 5 Noroeste 13 Noroeste 0 -- -- 63
2018-10-28 19:00:00 9.5 2 Noroeste 8 Noroeste 0 -- -- 63
2018-10-28 18:00:00 10.9 5 Noroeste 13 Noroeste 0 -- -- 58
2018-10-28 17:00:00 12.2 6 Noroeste 22 Noroeste 0 -- -- 55
2018-10-28 16:00:00 14 8 Noroeste 22 Noroeste 0 -- -- 49
2018-10-28 15:00:00 14.9 8 Noroeste 23 Noroeste 0 -- -- 51
2018-10-28 14:00:00 14.6 6 Oeste 19 Noroeste 0 -- -- 54
2018-10-28 13:00:00 14 8 Noroeste 21 Oeste 0 -- -- 58
2018-10-28 12:00:00 12.6 5 Noroeste 15 Noroeste 0 -- -- 69
2018-10-28 11:00:00 9.5 0 Calma 4 Sur 0 -- -- 82
2018-10-28 10:00:00 8.8 0 Calma 5 Este 0 -- -- 91
2018-10-28 09:00:00 8.2 0 Calma 4 Este 0 -- -- 94
2018-10-28 08:00:00 7.7 0 Calma 13 Noroeste 0.6 -- -- 93
2018-10-28 07:00:00 8.1 3 Noroeste 11 Noroeste 0.2 -- -- 94
2018-10-28 06:00:00 7.8 3 Noroeste 13 Noroeste 2.4 -- -- 92
2018-10-28 05:00:00 8.4 3 Noroeste 10 Oeste 1.8 -- -- 90
2018-10-28 04:00:00 8.8 2 Noroeste 9 Noroeste 0.2 -- -- 92
2018-10-28 03:00:00 8.7 4 Norte 8 Norte -- -- -- 91
2018-10-28 02:00:00 9 3 Norte 14 Noroeste 0.6 -- -- 91
2018-10-28 01:00:00 9.7 0 Calma 7 Noroeste 0.2 -- -- 92
2018-10-28 00:00:00 9.5 3 Norte 7 Oeste 0.4 -- -- 92
2018-10-27 23:00:00 9.5 0 Calma 14 Noroeste 1.6 -- -- 90
2018-10-27 22:00:00 10.2 4 Noroeste 16 Noroeste 1.2 -- -- 86
2018-10-27 21:00:00 12.7 7 Oeste 23 Oeste 0 -- -- 69
2018-10-27 20:00:00 12.9 2 Oeste 6 Oeste 0 -- -- 74
2018-10-27 19:00:00 13.3 0 Calma 9 Sudeste 0 -- -- 84
2018-10-27 18:00:00 13.6 0 Calma 5 Noroeste 0 -- -- 81
2018-10-27 17:00:00 13.1 2 Nordeste 6 Noroeste 0 -- -- 82
2018-10-27 16:00:00 13 0 Calma 9 Sudoeste 0.2 -- -- 83
2018-10-27 15:00:00 13.2 0 Calma 18 Noroeste 0 -- -- 85
2018-10-27 14:00:00 13.7 3 Noroeste 16 Oeste 0.4 -- -- 88
2018-10-27 13:00:00 13.7 6 Noroeste 16 Oeste 0.2 -- -- 85
2018-10-27 12:00:00 13.8 2 Noroeste 8 Oeste 0 -- -- 90
2018-10-27 11:00:00 13.7 4 Noroeste 13 Noroeste 0.2 -- -- 90
2018-10-27 10:00:00 14.1 0 Calma 9 Noroeste 0.8 -- -- 91
2018-10-27 09:00:00 14.6 3 Oeste 10 Oeste 0.4 -- -- 90
2018-10-27 08:00:00 14.8 0 Calma 5 Noroeste 0 -- -- 91
2018-10-27 07:00:00 15 0 Calma 5 Oeste 0.2 -- -- 92
2018-10-27 06:00:00 15.1 3 Noroeste 10 Nordeste 0.2 -- -- 91
2018-10-27 05:00:00 15.3 3 Noroeste 18 Noroeste 0.2 -- -- 89
2018-10-27 04:00:00 15.6 3 Oeste 9 Oeste 0.2 -- -- 88
2018-10-27 03:00:00 16 0 Calma 5 Norte 0.2 -- -- 91
2018-10-27 02:00:00 16.3 2 Oeste 15 Norte 0 -- -- 86
2018-10-27 01:00:00 16.8 5 Noroeste 16 Noroeste 0.8 -- -- 90
2018-10-27 00:00:00 17.6 3 Noroeste 10 Oeste 0 -- -- 90
2018-10-26 23:00:00 17.6 2 Noroeste 7 Norte 0 -- -- 89
2018-10-26 22:00:00 18 4 Noroeste 8 Noroeste 0 -- -- 90
2018-10-26 21:00:00 18.4 0 Calma 4 Norte 0 -- -- 89
2018-10-26 20:00:00 18.8 0 Calma 7 Oeste 0 -- -- 87
2018-10-26 19:00:00 19.3 3 Oeste 10 Sudoeste 0 -- -- 83
2018-10-26 18:00:00 20.3 4 Sudoeste 9 Oeste 0 -- -- 79
2018-10-26 17:00:00 20.8 3 Sur 10 Este 0 -- -- 75
2018-10-26 16:00:00 22 6 Sudeste 13 Este 0 -- -- 72
2018-10-26 15:00:00 21.3 4 Sudeste 14 Sudoeste 0 -- -- 75
2018-10-26 14:00:00 21 6 Sudeste 12 Sudeste 0 -- -- 76
2018-10-26 13:00:00 21.4 4 Sur 10 Sudeste 0 -- -- 75
2018-10-26 12:00:00 21.6 5 Sudeste 8 Sudeste 0 -- -- 71
2018-10-26 11:00:00 20.4 0 Calma 9 Noroeste 0 -- -- 74
2018-10-26 10:00:00 15.4 0 Calma 6 Noroeste 0 -- -- 92
2018-10-26 09:00:00 13.4 0 Calma 8 Noroeste 0 -- -- 93
2018-10-26 08:00:00 13.1 0 Calma -- -- 0 -- -- 92
2018-10-26 07:00:00 12.7 0 Calma -- -- 0 -- -- 90
2018-10-26 06:00:00 12.8 0 Calma 4 Noroeste 0 -- -- 85
2018-10-26 05:00:00 13.2 0 Calma 5 Noroeste 0 -- -- 85
2018-10-26 04:00:00 13.5 0 Calma 6 Noroeste 0 -- -- 83
2018-10-26 03:00:00 13.2 0 Calma 6 Nordeste 0 -- -- 92
2018-10-26 02:00:00 13.7 0 Calma -- -- 0 -- -- 93
2018-10-26 01:00:00 14.1 0 Calma 4 Noroeste 0 -- -- 91
2018-10-26 00:00:00 14.9 0 Calma 3 Noroeste 0 -- -- 91
2018-10-25 23:00:00 15.9 0 Calma 4 Este 0 -- -- 88
2018-10-25 22:00:00 16.9 0 Calma 4 Sudeste 0 -- -- 87
2018-10-25 21:00:00 17.9 0 Calma 3 Noroeste 0 -- -- 84
2018-10-25 20:00:00 19.2 0 Calma 7 Sur 0 -- -- 77
2018-10-25 19:00:00 20.7 4 Sudeste 12 Sudeste 0 -- -- 71
2018-10-25 18:00:00 21.9 7 Sudeste 13 Sudeste 0 -- -- 61
2018-10-25 17:00:00 23.6 7 Este 14 Este 0 -- -- 52
2018-10-25 16:00:00 23.4 7 Sudeste 17 Este 0 -- -- 50
2018-10-25 15:00:00 24.6 8 Sudeste 13 Este 0 -- -- 47
2018-10-25 14:00:00 25.8 4 Sudoeste 9 Noroeste 0 -- -- 40
2018-10-25 13:00:00 24.7 4 Oeste 9 Sudoeste 0 -- -- 41
2018-10-25 12:00:00 23.1 3 Sudoeste 6 Oeste 0 -- -- 44
2018-10-25 11:00:00 21.1 2 Norte 9 Noroeste 0 -- -- 47
2018-10-25 10:00:00 17.7 4 Noroeste 10 Noroeste 0 -- -- 61
2018-10-25 09:00:00 13.7 0 Calma 13 Norte 0 -- -- 71
2018-10-25 08:00:00 13.8 6 Noroeste 12 Norte 0 -- -- 67
2018-10-25 07:00:00 13.7 4 Noroeste 13 Nordeste 0 -- -- 70
2018-10-25 06:00:00 13.3 0 Calma 3 Norte 0 -- -- 76
2018-10-25 05:00:00 -- -- -- -- -- -- -- -- --
2018-10-25 04:00:00 14 2 Este 6 Este 0 -- -- 76
2018-10-25 03:00:00 13.4 3 Norte 9 Noroeste 0 -- -- 79
2018-10-25 02:00:00 14.6 3 Noroeste 6 Noroeste 0 -- -- 77
2018-10-25 01:00:00 15.6 0 Calma 5 Este 0 -- -- 69
2018-10-25 00:00:00 15.9 2 Este 12 Este 0 -- -- 64
2018-10-24 23:00:00 16.1 3 Este 6 Este 0 -- -- 65
2018-10-24 22:00:00 17.1 0 Calma 4 Este 0 -- -- 64
2018-10-24 21:00:00 17.9 0 Calma 4 Este 0 -- -- 59
2018-10-24 20:00:00 19.3 0 Calma 4 Noroeste 0 -- -- 56
2018-10-24 19:00:00 21.4 2 Noroeste 11 Sudoeste 0 -- -- 50
2018-10-24 18:00:00 24.5 3 Noroeste 9 Oeste 0 -- -- 43
2018-10-24 17:00:00 27 3 Oeste 8 Sudoeste 0 -- -- 38
2018-10-24 16:00:00 26.4 5 Sudeste 10 Sudeste 0 -- -- 38
2018-10-24 15:00:00 25.4 6 Sur 11 Sudoeste 0 -- -- 42
2018-10-24 14:00:00 24.9 3 Este 12 Norte 0 -- -- 41
2018-10-24 13:00:00 24.5 7 Noroeste 18 Norte 0 -- -- 46
2018-10-24 12:00:00 22.5 5 Norte 17 Noroeste 0 -- -- 50
2018-10-24 11:00:00 20.4 3 Noroeste 13 Noroeste 0 -- -- 55
2018-10-24 10:00:00 17 6 Noroeste 14 Noroeste 0 -- -- 65
2018-10-24 09:00:00 12.7 3 Norte 6 Sudoeste 0 -- -- 82
2018-10-24 08:00:00 12.2 0 Calma 4 Norte 0 -- -- 82
2018-10-24 07:00:00 11.7 2 Noroeste 11 Noroeste 0 -- -- 86
2018-10-24 06:00:00 12 0 Calma 5 Oeste 0 -- -- 86
2018-10-24 05:00:00 12.4 3 Noroeste 8 Noroeste 0 -- -- 83
2018-10-24 04:00:00 12.6 0 Calma 5 Noroeste 0 -- -- 85
2018-10-24 03:00:00 13.3 0 Calma 4 Sudeste 0 -- -- 82
2018-10-24 02:00:00 13.6 0 Calma 8 Norte 0 -- -- 81
2018-10-24 01:00:00 13.7 6 Noroeste 11 Norte 0 -- -- 79
2018-10-24 00:00:00 15.1 5 Noroeste 14 Norte 0 -- -- 72
2018-10-23 23:00:00 15 6 Norte 11 Nordeste 0 -- -- 73
2018-10-23 22:00:00 16.3 6 Norte 13 Norte 0 -- -- 69
2018-10-23 21:00:00 16.9 5 Noroeste 14 Norte 0 -- -- 68
2018-10-23 20:00:00 18.2 5 Norte 14 Nordeste 0 -- -- 64
2018-10-23 19:00:00 19.9 2 Noroeste 11 Sudoeste 0 -- -- 62
2018-10-23 18:00:00 21.4 5 Sudoeste 14 Sudoeste 0 -- -- 56
2018-10-23 17:00:00 22.5 7 Sudoeste 14 Sudoeste 0 -- -- 50
2018-10-23 16:00:00 22.6 6 Sur 17 Sudeste 0 -- -- 49
2018-10-23 15:00:00 22.6 6 Sudeste 13 Este 0 -- -- 50
2018-10-23 14:00:00 22 5 Sudoeste 13 Sudoeste 0 -- -- 50
2018-10-23 13:00:00 21.4 6 Sudeste 12 Sudeste 0 -- -- 53
2018-10-23 12:00:00 20.5 3 Este 11 Sudeste 0 -- -- 54
2018-10-23 11:00:00 18.2 2 Sudoeste 11 Norte 0 -- -- 57
2018-10-23 10:00:00 15.6 6 Noroeste 12 Noroeste 0 -- -- 70
2018-10-23 09:00:00 12.7 2 Este 10 Nordeste 0 -- -- 78
2018-10-23 08:00:00 12 2 Noroeste 16 Norte 0 -- -- 83
2018-10-23 07:00:00 12.1 3 Noroeste 7 Norte 0 -- -- 87
2018-10-23 06:00:00 13 5 Noroeste 13 Noroeste 0 -- -- 88
2018-10-23 05:00:00 13 4 Noroeste 10 Oeste 0 -- -- 90
2018-10-23 04:00:00 13.7 5 Noroeste 14 Noroeste 0 -- -- 82
2018-10-23 03:00:00 14.7 4 Noroeste 9 Noroeste 0 -- -- 90
2018-10-23 02:00:00 15.7 5 Norte 11 Noroeste 0 -- -- 92
2018-10-23 01:00:00 16.2 2 Norte 6 Norte 0 -- -- 91
2018-10-23 00:00:00 16 4 Noroeste 6 Noroeste 0 -- -- 91
2018-10-22 23:00:00 16.4 2 Este 4 Este 0 -- -- 90
2018-10-22 22:00:00 17 0 Calma 4 Noroeste 0 -- -- 89
2018-10-22 21:00:00 17.8 0 Calma 3 Norte 0 -- -- 85
2018-10-22 20:00:00 19.1 2 Este 8 Este 0 -- -- 79
2018-10-22 19:00:00 19.8 4 Sudeste 16 Sudeste 0 -- -- 75
2018-10-22 18:00:00 20.8 9 Sudeste 18 Sudeste 0 -- -- 69
2018-10-22 17:00:00 21.8 11 Sudeste 21 Sudeste 0 -- -- 64
2018-10-22 16:00:00 22.8 12 Sudeste 23 Sudeste 0 -- -- 55
2018-10-22 15:00:00 23.2 9 Sur 18 Sur 0 -- -- 58
2018-10-22 14:00:00 23.8 8 Sudeste 17 Sudeste 0 -- -- 53
2018-10-22 13:00:00 24.2 6 Sudeste 13 Sur 0 -- -- 49
2018-10-22 12:00:00 23.3 5 Sudoeste 13 Noroeste 0 -- -- 57
2018-10-22 11:00:00 21.9 4 Noroeste 12 Norte 0 -- -- 67
2018-10-22 10:00:00 18.8 4 Noroeste 12 Noroeste 0 -- -- 81
2018-10-22 09:00:00 16.1 5 Noroeste 8 Norte 0 -- -- 90
2018-10-22 08:00:00 15.9 2 Este 10 Este 0 -- -- 88
2018-10-22 07:00:00 16 4 Norte 14 Noroeste 0 -- -- 87
2018-10-22 06:00:00 15.8 5 Norte 13 Norte 0 -- -- 89
2018-10-22 05:00:00 15.6 0 Calma 4 Nordeste 0 -- -- 89
2018-10-22 04:00:00 15.4 3 Noroeste 10 Noroeste 0 -- -- 90
2018-10-22 03:00:00 15.7 5 Noroeste 8 Norte 0 -- -- 92
2018-10-22 02:00:00 15.7 0 Calma 4 Noroeste 0 -- -- 93
2018-10-22 01:00:00 17 0 Calma 4 Noroeste 0 -- -- 94
2018-10-22 00:00:00 17.5 0 Calma 4 Este 0 -- -- 93
2018-10-21 23:00:00 17.9 0 Calma 5 Noroeste 0 -- -- 92
2018-10-21 22:00:00 18.6 0 Calma 6 Noroeste 0 -- -- 90
2018-10-21 21:00:00 19.5 3 Noroeste 5 Noroeste 0 -- -- 88
2018-10-21 20:00:00 20.6 0 Calma 6 Oeste 0 -- -- 86
2018-10-21 19:00:00 21.4 3 Sudoeste 13 Sudoeste 0 -- -- 79
2018-10-21 18:00:00 22.5 6 Sudoeste 13 Oeste 0 -- -- 71
2018-10-21 17:00:00 23.9 6 Sudoeste 15 Sudoeste 0 -- -- 64
2018-10-21 16:00:00 24 7 Sudoeste 21 Oeste 0 -- -- 65
2018-10-21 15:00:00 23.6 8 Sudoeste 17 Sudoeste 0 -- -- 67
2018-10-21 14:00:00 23.7 7 Sudoeste 12 Sur 0 -- -- 64
2018-10-21 13:00:00 24 5 Sur 11 Sudoeste 0 -- -- 62
2018-10-21 12:00:00 23.2 5 Sur 10 Oeste 0 -- -- 65
2018-10-21 11:00:00 22.6 2 Norte 9 Norte 0 -- -- 65
2018-10-21 10:00:00 19.6 4 Norte 9 Norte 0 -- -- 81
2018-10-21 09:00:00 16.8 3 Norte 14 Norte 0 -- -- 88
2018-10-21 08:00:00 16.8 3 Nordeste 12 Norte 0 -- -- 88
2018-10-21 07:00:00 17 5 Norte 17 Norte 0 -- -- 87
2018-10-21 06:00:00 16.7 3 Norte 10 Norte 0 -- -- 89
2018-10-21 05:00:00 16.8 3 Norte 12 Norte 0 -- -- 88
2018-10-21 04:00:00 16.9 5 Norte 14 Noroeste 0 -- -- 87
2018-10-21 03:00:00 16.7 3 Norte 11 Norte 0 -- -- 88
2018-10-21 02:00:00 16.3 2 Nordeste 6 Norte 0 -- -- 90
2018-10-21 01:00:00 16.6 0 Calma 9 Norte 0 -- -- 89
2018-10-21 00:00:00 16.7 4 Norte 7 Norte 0 -- -- 91
2018-10-20 23:00:00 17.2 4 Noroeste 8 Noroeste 0 -- -- 89
2018-10-20 22:00:00 17.4 2 Norte 5 Noroeste 0 -- -- 91
2018-10-20 21:00:00 18 0 Calma 4 Norte 0 -- -- 90
2018-10-20 20:00:00 18.7 3 Norte 5 Noroeste 0 -- -- 86
2018-10-20 19:00:00 19.9 2 Nordeste 17 Este 0 -- -- 81
2018-10-20 18:00:00 20.7 7 Sudeste 18 Este 0 -- -- 80
2018-10-20 17:00:00 21.5 8 Sudeste 17 Sudeste 0 -- -- 73
2018-10-20 16:00:00 23.4 10 Sudeste 21 Sudeste 0 -- -- 65
2018-10-20 15:00:00 23.2 9 Sudeste 23 Este 0 -- -- 64
2018-10-20 14:00:00 22.9 8 Sudeste 27 Este 0 -- -- 66
2018-10-20 13:00:00 23.3 6 Nordeste 18 Este 0 -- -- 67
2018-10-20 12:00:00 22.1 5 Nordeste 14 Nordeste 0 -- -- 69
2018-10-20 11:00:00 21.3 2 Este 11 Este 0 -- -- 74
2018-10-20 10:00:00 19.1 4 Nordeste 15 Nordeste 0 -- -- 78
2018-10-20 09:00:00 16.9 2 Noroeste 8 Noroeste 0 -- -- 92
2018-10-20 08:00:00 15.7 3 Norte 5 Noroeste 0 -- -- 94
2018-10-20 07:00:00 15.6 3 Noroeste 5 Norte 0 -- -- 94
2018-10-20 06:00:00 15.6 3 Noroeste 7 Norte 0 -- -- 93
2018-10-20 05:00:00 16.3 2 Noroeste 14 Nordeste 0 -- -- 90
2018-10-20 04:00:00 17 6 Norte 14 Norte 0 -- -- 89
2018-10-20 03:00:00 16.5 3 Norte 13 Nordeste 0 -- -- 92
2018-10-20 02:00:00 17 2 Norte 13 Norte 0.2 -- -- 93
2018-10-20 01:00:00 17.3 4 Norte 24 Norte 2 -- -- 92
2018-10-20 00:00:00 17.6 7 Norte 15 Norte 5.8 -- -- 93
2018-10-19 23:00:00 18.1 4 Sudeste 10 Sudeste 1.2 -- -- 92
2018-10-19 22:00:00 18.1 4 Norte 12 Norte 2 -- -- 92
2018-10-19 21:00:00 18.7 3 Norte 14 Nordeste 0.6 -- -- 89
2018-10-19 20:00:00 19.1 0 Calma 17 Este 0.2 -- -- 88
2018-10-19 19:00:00 20 4 Este 16 Este 0.8 -- -- 83
2018-10-19 18:00:00 21.3 5 Este 22 Nordeste 0 -- -- 74
2018-10-19 17:00:00 21.7 9 Este 28 Este 0 -- -- 73
2018-10-19 16:00:00 21.4 8 Este 30 Este 0 -- -- 77
2018-10-19 15:00:00 21.3 12 Este 34 Este 0 -- -- 76
2018-10-19 14:00:00 21 8 Este 23 Este 0 -- -- 80
2018-10-19 13:00:00 19.4 3 Nordeste 12 Nordeste 0 -- -- 88
2018-10-19 12:00:00 17.9 6 Norte 16 Nordeste 3 -- -- 94
2018-10-19 11:00:00 16.8 4 Norte 12 Nordeste 7.2 -- -- 94
2018-10-19 10:00:00 16.9 5 Norte 28 Nordeste 3.4 -- -- 92
2018-10-19 09:00:00 17.4 10 Este 27 Este 0.2 -- -- 89
2018-10-19 08:00:00 16.7 5 Nordeste 19 Nordeste 3.6 -- -- 93
2018-10-19 07:00:00 16.8 6 Nordeste 31 Nordeste 6 -- -- 93
2018-10-19 06:00:00 16.9 6 Este 22 Este 6.2 -- -- 91
2018-10-19 05:00:00 17.1 4 Norte 14 Nordeste 5 -- -- 90
2018-10-19 04:00:00 18.1 3 Norte 12 Norte 3.2 -- -- 86
2018-10-19 03:00:00 19.6 4 Norte 12 Nordeste 0 -- -- 76
2018-10-19 02:00:00 20 3 Nordeste 21 Este 0 -- -- 72
2018-10-19 01:00:00 19.8 4 Nordeste 19 Nordeste 0 -- -- 72
2018-10-19 00:00:00 19.2 5 Nordeste 19 Nordeste 0 -- -- 75
2018-10-18 23:00:00 18.6 6 Norte 17 Norte 0 -- -- 79
2018-10-18 22:00:00 18.2 3 Norte 13 Norte 0.2 -- -- 84
2018-10-18 21:00:00 18.6 5 Nordeste 17 Nordeste 0 -- -- 84
2018-10-18 20:00:00 18.6 4 Norte 12 Este 0 -- -- 88
2018-10-18 19:00:00 18.7 2 Norte 9 Noroeste 0 -- -- 89
2018-10-18 18:00:00 18.7 0 Calma 19 Norte 0.6 -- -- 89
2018-10-18 17:00:00 18.9 5 Norte 23 Nordeste 0.6 -- -- 87
2018-10-18 16:00:00 18.9 7 Norte 15 Nordeste 0 -- -- 88
2018-10-18 15:00:00 18.7 4 Norte 21 Norte 1.6 -- -- 90
2018-10-18 14:00:00 19.6 5 Nordeste 30 Este 2.2 -- -- 85
2018-10-18 13:00:00 22.9 6 Este 22 Nordeste 0 -- -- 65
2018-10-18 12:00:00 24.3 7 Este 24 Sudeste 0 -- -- 59
2018-10-18 11:00:00 21.4 4 Norte 10 Norte 0 -- -- 72
2018-10-18 10:00:00 18.1 4 Norte 7 Noroeste 0 -- -- 81
2018-10-18 09:00:00 16.7 3 Noroeste 12 Nordeste 0 -- -- 83
2018-10-18 08:00:00 16.8 5 Norte 15 Norte 0 -- -- 82
2018-10-18 07:00:00 16.6 6 Norte 13 Noroeste 0 -- -- 84
2018-10-18 06:00:00 16.9 2 Norte 14 Norte 0 -- -- 83
2018-10-18 05:00:00 17.2 5 Norte 11 Noroeste 0 -- -- 84
2018-10-18 04:00:00 17.6 6 Norte 16 Nordeste 0 -- -- 84
2018-10-18 03:00:00 17.9 3 Norte 10 Norte 0 -- -- 84
2018-10-18 02:00:00 18.2 4 Norte 10 Norte 0 -- -- 83
2018-10-18 01:00:00 18.6 3 Norte 10 Norte 0 -- -- 83
2018-10-18 00:00:00 18.9 4 Norte 8 Nordeste 0 -- -- 83